Time;durP1;ratioP1;P1;durP2;ratioP2;P2;SDS_P1;SDS_P2;PMS_P1;PMS_P2;Temp;Humidity;BMP_temperature;BMP_pressure;BME280_temperature;BME280_humidity;BME280_pressure;Samples;Min_cycle;Max_cycle;Signal;HPM_P1;HPM_P2
2022/07/14 00:01:25;;;;;;;11.27;2.85;;;;;;;;;;10399823;28;20017;-55
2022/07/14 00:06:25;;;;;;;8.95;2.63;;;;;;;;;;10401122;28;20472;-56
2022/07/14 00:11:27;;;;;;;9.10;3.15;;;;;;;;;;10379892;28;20401;-56
2022/07/14 00:16:27;;;;;;;10.63;3.60;;;;;;;;;;10398893;28;20061;-54
2022/07/14 00:21:28;;;;;;;10.52;3.38;;;;;;;;;;10404414;28;20026;-54
2022/07/14 00:26:28;;;;;;;9.45;3.83;;;;;;;;;;10405162;28;20124;-56
2022/07/14 00:31:29;;;;;;;9.77;4.03;;;;;;;;;;10399080;28;20084;-55
2022/07/14 00:36:30;;;;;;;8.85;3.33;;;;;;;;;;10403251;28;20029;-56
2022/07/14 00:41:30;;;;;;;9.20;3.30;;;;;;;;;;10385049;28;20033;-55
2022/07/14 00:46:31;;;;;;;5.18;3.38;;;;;;;;;;10400737;28;20017;-54
2022/07/14 00:51:31;;;;;;;6.82;3.78;;;;;;;;;;10391648;28;20112;-55
2022/07/14 00:56:32;;;;;;;7.35;3.90;;;;;;;;;;10382273;28;20029;-55
2022/07/14 01:01:33;;;;;;;10.68;3.85;;;;;;;;;;10395141;28;20026;-55
2022/07/14 01:06:33;;;;;;;11.00;3.53;;;;;;;;;;10382769;28;20497;-55
2022/07/14 01:11:34;;;;;;;9.10;4.13;;;;;;;;;;10386453;28;20042;-55
2022/07/14 01:16:35;;;;;;;8.65;3.45;;;;;;;;;;10389054;28;20473;-54
2022/07/14 01:21:35;;;;;;;8.45;3.53;;;;;;;;;;10399278;28;20083;-54
2022/07/14 01:26:36;;;;;;;5.88;3.53;;;;;;;;;;10399229;28;20042;-55
2022/07/14 01:31:37;;;;;;;8.70;3.63;;;;;;;;;;10401643;28;20067;-55
2022/07/14 01:36:38;;;;;;;7.50;3.47;;;;;;;;;;10396788;28;20060;-56
2022/07/14 01:41:39;;;;;;;10.88;4.00;;;;;;;;;;10398169;28;20026;-55
2022/07/14 01:46:40;;;;;;;14.52;3.72;;;;;;;;;;10395078;28;20394;-54
2022/07/14 01:51:41;;;;;;;18.05;4.15;;;;;;;;;;10403718;28;20041;-55
2022/07/14 01:56:41;;;;;;;15.02;3.67;;;;;;;;;;10396160;28;20033;-55
2022/07/14 02:01:42;;;;;;;7.75;3.42;;;;;;;;;;10393268;28;20060;-55
2022/07/14 02:06:50;;;;;;;9.23;3.92;;;;;;;;;;10411250;28;20025;-55
2022/07/14 02:17:09;;;;;;;10.52;3.38;;;;;;;;;;10398029;28;20029;-54
2022/07/14 02:22:10;;;;;;;5.78;2.90;;;;;;;;;;10402588;28;20026;-56
2022/07/14 02:27:10;;;;;;;8.23;3.25;;;;;;;;;;10405125;28;20042;-55
2022/07/14 02:32:11;;;;;;;10.20;3.10;;;;;;;;;;10383421;28;20033;-55
2022/07/14 02:37:12;;;;;;;7.85;3.20;;;;;;;;;;10396259;28;20053;-54
2022/07/14 02:42:12;;;;;;;7.68;3.38;;;;;;;;;;10408909;28;20030;-55
2022/07/14 02:47:13;;;;;;;6.32;3.05;;;;;;;;;;10410475;28;20025;-55
2022/07/14 02:52:14;;;;;;;8.30;3.10;;;;;;;;;;10397109;28;20034;-56
2022/07/14 02:57:14;;;;;;;9.50;3.28;;;;;;;;;;10402673;28;20029;-55
2022/07/14 03:02:15;;;;;;;9.82;3.22;;;;;;;;;;10404193;28;20469;-56
2022/07/14 03:07:15;;;;;;;7.07;3.10;;;;;;;;;;10402625;28;20029;-55
2022/07/14 03:12:16;;;;;;;9.60;2.90;;;;;;;;;;10404816;28;20033;-55
2022/07/14 03:17:17;;;;;;;5.50;2.83;;;;;;;;;;10406825;28;20428;-54
2022/07/14 03:22:18;;;;;;;6.30;3.28;;;;;;;;;;10387570;28;20041;-50
2022/07/14 03:27:19;;;;;;;12.82;3.20;;;;;;;;;;10380405;28;20048;-53
2022/07/14 03:32:19;;;;;;;6.72;3.35;;;;;;;;;;10407549;28;20033;-52
2022/07/14 03:37:20;;;;;;;15.85;3.72;;;;;;;;;;10406481;28;20033;-52
2022/07/14 03:42:21;;;;;;;10.90;3.88;;;;;;;;;;10406346;28;20026;-52
2022/07/14 03:47:22;;;;;;;8.20;3.60;;;;;;;;;;10403103;28;20397;-51
2022/07/14 03:52:23;;;;;;;11.25;3.67;;;;;;;;;;10400785;28;20025;-54
2022/07/14 03:57:24;;;;;;;12.65;4.72;;;;;;;;;;10395009;28;20022;-52
2022/07/14 04:02:24;;;;;;;13.98;4.35;;;;;;;;;;10403707;28;20461;-54
2022/07/14 04:07:25;;;;;;;14.25;4.88;;;;;;;;;;10403594;28;20032;-53
2022/07/14 04:12:26;;;;;;;13.60;4.53;;;;;;;;;;10403724;28;20033;-51
2022/07/14 04:17:27;;;;;;;16.05;4.05;;;;;;;;;;10400650;28;20041;-51
2022/07/14 04:22:28;;;;;;;12.32;4.80;;;;;;;;;;10398153;28;20148;-53
2022/07/14 04:27:29;;;;;;;8.93;4.18;;;;;;;;;;10395827;28;20369;-53
2022/07/14 04:32:30;;;;;;;7.95;4.47;;;;;;;;;;10385865;28;20052;-52
2022/07/14 04:37:31;;;;;;;9.50;4.50;;;;;;;;;;10392205;28;20084;-54
2022/07/14 04:42:32;;;;;;;16.20;4.90;;;;;;;;;;10399589;28;20029;-50
2022/07/14 04:47:32;;;;;;;6.88;3.83;;;;;;;;;;10403257;28;20807;-51
2022/07/14 04:52:33;;;;;;;11.85;4.10;;;;;;;;;;10388800;28;20040;-54
2022/07/14 04:57:33;;;;;;;10.57;4.15;;;;;;;;;;10394847;28;20040;-53
2022/07/14 05:02:34;;;;;;;12.15;3.88;;;;;;;;;;10394026;28;20440;-53
2022/07/14 05:07:35;;;;;;;5.32;3.65;;;;;;;;;;10401365;28;20025;-53
2022/07/14 05:12:35;;;;;;;10.93;4.22;;;;;;;;;;10393567;28;20040;-49
2022/07/14 05:17:36;;;;;;;10.88;3.88;;;;;;;;;;10379785;28;20060;-50
2022/07/14 05:22:39;;;;;;;10.15;3.10;;;;;;;;;;10394706;28;20118;-53
2022/07/14 05:27:41;;;;;;;10.90;3.05;;;;;;;;;;10422349;23;20060;-55
2022/07/14 05:32:41;;;;;;;18.42;3.22;;;;;;;;;;10426418;28;20033;-57
2022/07/14 05:37:42;;;;;;;10.05;3.00;;;;;;;;;;10411575;28;20106;-57
2022/07/14 05:42:42;;;;;;;7.47;3.13;;;;;;;;;;10403764;28;20040;-58
2022/07/14 05:47:43;;;;;;;10.25;3.03;;;;;;;;;;10403773;28;20080;-57
2022/07/14 05:52:44;;;;;;;22.00;3.30;;;;;;;;;;10408727;28;20029;-60
2022/07/14 05:57:44;;;;;;;14.80;3.00;;;;;;;;;;10391417;28;20378;-60
2022/07/14 06:02:45;;;;;;;9.45;2.83;;;;;;;;;;10399998;28;20025;-61
2022/07/14 06:07:46;;;;;;;5.38;2.35;;;;;;;;;;10394626;28;20025;-59
2022/07/14 06:12:46;;;;;;;10.52;2.25;;;;;;;;;;10391689;28;20040;-60
2022/07/14 06:17:47;;;;;;;12.35;2.63;;;;;;;;;;10412461;28;20029;-59
2022/07/14 06:22:49;;;;;;;16.05;3.42;;;;;;;;;;10408905;28;20465;-58
2022/07/14 06:27:50;;;;;;;15.43;2.78;;;;;;;;;;10408737;28;20049;-53
2022/07/14 06:32:50;;;;;;;10.80;2.65;;;;;;;;;;10406639;28;20413;-58
2022/07/14 06:37:55;;;;;;;15.77;2.63;;;;;;;;;;10403649;28;20114;-50
2022/07/14 06:42:56;;;;;;;16.98;2.88;;;;;;;;;;10408448;28;20104;-53
2022/07/14 06:47:56;;;;;;;11.32;2.22;;;;;;;;;;10407299;28;20472;-54
2022/07/14 06:52:57;;;;;;;11.57;2.30;;;;;;;;;;10410096;28;20397;-52
2022/07/14 06:57:58;;;;;;;12.38;2.17;;;;;;;;;;10410706;28;20022;-57
2022/07/14 07:02:58;;;;;;;11.20;2.03;;;;;;;;;;10410326;28;20035;-56
2022/07/14 07:08:00;;;;;;;6.18;2.15;;;;;;;;;;10407728;28;20469;-54
2022/07/14 07:13:01;;;;;;;9.98;2.08;;;;;;;;;;10403247;28;20033;-57
2022/07/14 07:18:04;;;;;;;7.13;1.98;;;;;;;;;;10406309;28;20550;-55
2022/07/14 07:23:04;;;;;;;6.00;2.17;;;;;;;;;;10402373;28;20048;-55
2022/07/14 07:28:05;;;;;;;9.73;1.70;;;;;;;;;;10403823;28;20042;-52
2022/07/14 07:33:06;;;;;;;8.50;2.10;;;;;;;;;;10401538;28;20029;-55
2022/07/14 07:38:06;;;;;;;8.35;2.15;;;;;;;;;;10396997;28;20042;-56
2022/07/14 07:43:07;;;;;;;5.10;1.92;;;;;;;;;;10398132;28;20021;-55
2022/07/14 07:48:07;;;;;;;7.65;2.10;;;;;;;;;;10394916;28;20022;-56
2022/07/14 07:53:09;;;;;;;5.55;1.52;;;;;;;;;;10395626;28;20048;-56
2022/07/14 07:58:10;;;;;;;6.72;1.98;;;;;;;;;;10395648;28;20025;-54
2022/07/14 08:03:10;;;;;;;4.57;1.63;;;;;;;;;;10398379;28;20025;-55
2022/07/14 08:08:11;;;;;;;5.53;1.63;;;;;;;;;;10395822;28;20026;-55
2022/07/14 08:13:12;;;;;;;13.80;2.47;;;;;;;;;;10396202;28;20480;-55
2022/07/14 08:18:12;;;;;;;8.82;1.75;;;;;;;;;;10392021;28;20167;-55
2022/07/14 08:23:13;;;;;;;11.07;2.47;;;;;;;;;;10388397;28;20417;-57
2022/07/14 08:28:14;;;;;;;12.35;2.38;;;;;;;;;;10394587;28;20129;-56
2022/07/14 08:33:14;;;;;;;7.85;2.03;;;;;;;;;;10391786;28;20041;-57
2022/07/14 08:38:15;;;;;;;8.23;2.28;;;;;;;;;;10396586;28;20030;-57
2022/07/14 08:43:17;;;;;;;9.32;2.30;;;;;;;;;;10394416;28;20030;-55
2022/07/14 08:48:19;;;;;;;13.82;2.72;;;;;;;;;;10400601;28;20568;-57
2022/07/14 08:53:20;;;;;;;16.80;2.60;;;;;;;;;;10401087;28;20039;-56
2022/07/14 08:58:21;;;;;;;10.80;2.75;;;;;;;;;;10408583;28;20036;-55
2022/07/14 09:03:23;;;;;;;9.23;2.10;;;;;;;;;;10412682;28;20033;-55
2022/07/14 09:08:23;;;;;;;11.15;3.00;;;;;;;;;;10409692;28;20354;-53
2022/07/14 09:13:24;;;;;;;10.25;2.40;;;;;;;;;;10413995;28;20033;-55
2022/07/14 09:18:27;;;;;;;8.40;2.30;;;;;;;;;;10414369;28;20028;-57
2022/07/14 09:23:31;;;;;;;12.20;2.63;;;;;;;;;;10413724;28;20032;-56
2022/07/14 09:28:42;;;;;;;5.15;2.08;;;;;;;;;;10410872;28;20037;-57
2022/07/14 09:33:43;;;;;;;8.75;2.30;;;;;;;;;;10410087;28;20029;-56
2022/07/14 09:38:45;;;;;;;9.10;2.22;;;;;;;;;;10397722;28;20021;-52
2022/07/14 09:44:13;;;;;;;10.55;2.25;;;;;;;;;;10411723;28;20026;-57
2022/07/14 09:49:16;;;;;;;6.05;2.17;;;;;;;;;;10398133;28;20406;-57
2022/07/14 09:54:49;;;;;;;8.93;2.13;;;;;;;;;;10403940;28;20034;-55
2022/07/14 09:59:55;;;;;;;4.35;1.85;;;;;;;;;;10408725;28;20477;-56
2022/07/14 10:05:01;;;;;;;7.68;2.33;;;;;;;;;;10398285;28;20044;-56
2022/07/14 10:10:12;;;;;;;6.78;1.98;;;;;;;;;;10404846;28;20029;-54
2022/07/14 10:15:14;;;;;;;5.97;2.30;;;;;;;;;;10392839;28;20079;-54
2022/07/14 10:20:16;;;;;;;5.38;2.22;;;;;;;;;;10408157;28;20386;-53
2022/07/14 10:25:17;;;;;;;4.38;1.83;;;;;;;;;;10411097;28;20046;-56
2022/07/14 10:30:18;;;;;;;2.17;1.80;;;;;;;;;;10409160;28;20017;-52
2022/07/14 10:35:56;;;;;;;5.43;2.35;;;;;;;;;;10404508;28;20084;-56
2022/07/14 10:41:14;;;;;;;3.10;1.70;;;;;;;;;;10410757;28;20124;-57
2022/07/14 10:46:42;;;;;;;6.38;1.95;;;;;;;;;;10410500;28;20033;-56
2022/07/14 10:51:50;;;;;;;2.50;1.60;;;;;;;;;;10403021;28;20045;-53
2022/07/14 10:57:16;;;;;;;3.25;1.60;;;;;;;;;;10396774;28;20045;-56
2022/07/14 11:02:18;;;;;;;3.17;2.00;;;;;;;;;;10393996;28;20512;-57
2022/07/14 11:07:50;;;;;;;3.35;1.67;;;;;;;;;;10402383;28;20051;-57
2022/07/14 11:12:59;;;;;;;5.40;1.77;;;;;;;;;;10392912;28;20040;-55
2022/07/14 11:18:26;;;;;;;4.28;1.50;;;;;;;;;;10392928;28;20030;-56
2022/07/14 11:23:51;;;;;;;5.97;1.90;;;;;;;;;;10389502;28;20567;-56
2022/07/14 11:28:52;;;;;;;4.43;2.30;;;;;;;;;;10395967;28;20034;-55
2022/07/14 11:39:17;;;;;;;3.45;1.77;;;;;;;;;;10402373;28;20500;-55
2022/07/14 11:44:36;;;;;;;7.53;2.07;;;;;;;;;;10407094;28;20109;-54
2022/07/14 11:49:36;;;;;;;4.18;2.00;;;;;;;;;;10400730;28;20455;-53
2022/07/14 11:54:38;;;;;;;4.63;1.67;;;;;;;;;;10400411;28;20039;-53
2022/07/14 11:59:42;;;;;;;11.20;2.38;;;;;;;;;;10406918;28;20017;-52
2022/07/14 12:04:57;;;;;;;10.95;2.42;;;;;;;;;;10404121;28;20021;-54
2022/07/14 12:09:58;;;;;;;5.00;2.30;;;;;;;;;;10389382;28;20126;-55
2022/07/14 12:14:59;;;;;;;7.05;2.03;;;;;;;;;;10401117;28;20041;-56
2022/07/14 12:20:00;;;;;;;4.88;1.95;;;;;;;;;;10396235;28;20094;-56
2022/07/14 12:25:00;;;;;;;3.78;1.75;;;;;;;;;;10401749;28;20049;-56
2022/07/14 12:30:01;;;;;;;6.70;1.92;;;;;;;;;;10403288;28;20242;-58
2022/07/14 12:35:02;;;;;;;15.30;2.40;;;;;;;;;;10399471;28;20033;-56
2022/07/14 12:40:05;;;;;;;6.10;1.98;;;;;;;;;;10395139;28;20116;-56
2022/07/14 12:45:07;;;;;;;2.75;1.88;;;;;;;;;;10395679;28;20120;-56
2022/07/14 12:50:20;;;;;;;4.70;2.00;;;;;;;;;;10382011;28;20029;-58
2022/07/14 12:55:58;;;;;;;6.85;2.13;;;;;;;;;;10405747;28;20516;-57
2022/07/14 13:00:58;;;;;;;8.13;2.53;;;;;;;;;;10396002;28;20563;-58
2022/07/14 13:05:59;;;;;;;6.00;1.98;;;;;;;;;;10404915;28;20034;-58
2022/07/14 13:11:02;;;;;;;7.28;2.10;;;;;;;;;;10397017;28;20031;-54
2022/07/14 13:16:23;;;;;;;4.05;1.90;;;;;;;;;;10402728;28;20519;-56
2022/07/14 13:21:50;;;;;;;3.83;1.80;;;;;;;;;;10377575;28;20449;-57
2022/07/14 13:27:12;;;;;;;4.72;1.95;;;;;;;;;;10383073;28;20041;-57
2022/07/14 13:32:15;;;;;;;3.70;1.77;;;;;;;;;;10402048;28;20025;-58
2022/07/14 13:37:17;;;;;;;3.00;1.65;;;;;;;;;;10399470;28;20033;-55
2022/07/14 13:42:17;;;;;;;7.07;2.22;;;;;;;;;;10401487;28;20457;-51
2022/07/14 13:47:18;;;;;;;3.42;2.38;;;;;;;;;;10400752;28;20018;-56
2022/07/14 13:52:19;;;;;;;21.23;3.50;;;;;;;;;;10385348;28;20049;-57
2022/07/14 13:57:19;;;;;;;47.42;4.97;;;;;;;;;;10395258;28;20021;-55
2022/07/14 14:02:20;;;;;;;63.53;5.00;;;;;;;;;;10399238;28;20026;-54
2022/07/14 14:07:20;;;;;;;48.03;5.13;;;;;;;;;;10395479;28;20034;-55
2022/07/14 14:12:21;;;;;;;18.63;3.10;;;;;;;;;;10407620;28;20033;-52
2022/07/14 14:17:21;;;;;;;20.25;3.42;;;;;;;;;;10406661;28;20416;-55
2022/07/14 14:22:22;;;;;;;11.53;2.80;;;;;;;;;;10407760;28;20611;-54
2022/07/14 14:27:22;;;;;;;19.17;3.50;;;;;;;;;;10399904;28;20471;-53
2022/07/14 14:32:23;;;;;;;9.87;2.30;;;;;;;;;;10396869;28;20033;-56
2022/07/14 14:37:23;;;;;;;16.58;2.40;;;;;;;;;;10409798;28;20463;-52
2022/07/14 14:42:23;;;;;;;6.83;2.10;;;;;;;;;;10393999;28;20026;-56
2022/07/14 14:47:24;;;;;;;14.57;2.50;;;;;;;;;;10409138;28;20505;-55
2022/07/14 14:52:26;;;;;;;5.10;2.33;;;;;;;;;;10404632;28;20475;-56
2022/07/14 14:57:26;;;;;;;3.08;1.60;;;;;;;;;;10401806;28;20057;-52
2022/07/14 15:02:27;;;;;;;6.97;2.22;;;;;;;;;;10394347;28;20112;-57
2022/07/14 15:07:27;;;;;;;5.70;2.28;;;;;;;;;;10408933;28;20025;-53
2022/07/14 15:12:27;;;;;;;10.23;2.80;;;;;;;;;;10408810;28;20046;-55
2022/07/14 15:17:28;;;;;;;8.07;2.30;;;;;;;;;;10409341;28;20548;-53
2022/07/14 15:22:28;;;;;;;6.33;2.47;;;;;;;;;;10397328;28;20030;-54
2022/07/14 15:27:29;;;;;;;4.37;2.00;;;;;;;;;;10401144;28;20034;-55
2022/07/14 15:32:29;;;;;;;9.17;1.80;;;;;;;;;;10406139;28;20471;-52
2022/07/14 15:37:29;;;;;;;4.83;2.17;;;;;;;;;;10395292;28;20021;-54
2022/07/14 15:42:30;;;;;;;3.97;1.90;;;;;;;;;;10399728;28;20041;-51
2022/07/14 15:47:30;;;;;;;7.63;1.90;;;;;;;;;;10409252;28;20113;-55
2022/07/14 15:52:31;;;;;;;5.63;2.00;;;;;;;;;;10403443;28;20835;-54
2022/07/14 15:57:32;;;;;;;7.20;2.50;;;;;;;;;;10383857;28;21002;-54
2022/07/14 16:02:32;;;;;;;6.03;2.75;;;;;;;;;;10397030;28;20037;-50
2022/07/14 16:07:34;;;;;;;2.92;1.75;;;;;;;;;;10406430;28;20017;-54
2022/07/14 16:12:35;;;;;;;7.20;2.00;;;;;;;;;;10405283;28;20079;-54
2022/07/14 16:17:38;;;;;;;4.25;2.00;;;;;;;;;;10403262;28;20493;-54
2022/07/14 16:22:38;;;;;;;4.30;2.08;;;;;;;;;;10402557;28;20503;-53
2022/07/14 16:27:39;;;;;;;3.92;2.08;;;;;;;;;;10392558;28;20037;-53
2022/07/14 16:32:40;;;;;;;2.45;1.52;;;;;;;;;;10394386;28;20026;-54
2022/07/14 16:37:41;;;;;;;6.37;1.73;;;;;;;;;;10401068;28;20094;-54
2022/07/14 16:42:43;;;;;;;8.20;1.70;;;;;;;;;;10379366;28;20447;-51
2022/07/14 16:47:44;;;;;;;5.82;1.75;;;;;;;;;;10380117;28;20029;-51
2022/07/14 16:52:45;;;;;;;6.68;1.50;;;;;;;;;;10393861;28;20041;-51
2022/07/14 16:57:45;;;;;;;6.18;1.70;;;;;;;;;;10390432;28;20038;-53
2022/07/14 17:02:46;;;;;;;3.83;1.42;;;;;;;;;;10401861;28;20033;-54
2022/07/14 17:07:46;;;;;;;7.77;1.50;;;;;;;;;;10390037;28;20029;-55
2022/07/14 17:12:47;;;;;;;4.37;1.70;;;;;;;;;;10387728;28;20495;-56
2022/07/14 17:17:47;;;;;;;4.60;1.73;;;;;;;;;;10404935;28;20466;-55
2022/07/14 17:22:48;;;;;;;5.17;1.87;;;;;;;;;;10408395;28;20055;-55
2022/07/14 17:27:49;;;;;;;2.87;1.40;;;;;;;;;;10379876;28;20563;-55
2022/07/14 17:32:49;;;;;;;1.77;1.20;;;;;;;;;;10413167;28;20060;-55
2022/07/14 17:37:50;;;;;;;11.13;1.20;;;;;;;;;;10406896;28;20033;-52
2022/07/14 17:42:50;;;;;;;10.47;1.90;;;;;;;;;;10410740;28;20470;-54
2022/07/14 17:47:50;;;;;;;4.50;1.30;;;;;;;;;;10408720;28;20041;-54
2022/07/14 17:52:51;;;;;;;2.97;1.30;;;;;;;;;;10396153;28;20486;-51
2022/07/14 17:57:51;;;;;;;6.70;1.53;;;;;;;;;;10383311;28;20447;-49
2022/07/14 18:02:52;;;;;;;4.25;1.50;;;;;;;;;;10384456;28;20496;-52
2022/07/14 18:07:53;;;;;;;3.28;0.90;;;;;;;;;;10402641;28;20030;-53
2022/07/14 18:12:54;;;;;;;1.63;1.13;;;;;;;;;;10397128;28;20022;-52
2022/07/14 18:17:55;;;;;;;4.22;1.27;;;;;;;;;;10404648;28;20393;-53
2022/07/14 18:22:55;;;;;;;3.70;1.30;;;;;;;;;;10390989;28;20099;-53
2022/07/14 18:27:57;;;;;;;2.43;1.30;;;;;;;;;;10397235;28;20558;-49
2022/07/14 18:32:58;;;;;;;1.30;1.10;;;;;;;;;;10401957;28;20512;-53
2022/07/14 18:37:58;;;;;;;11.43;1.70;;;;;;;;;;10405197;28;20037;-53
2022/07/14 18:42:58;;;;;;;6.15;1.80;;;;;;;;;;10393794;28;20490;-54
2022/07/14 18:47:59;;;;;;;9.37;2.10;;;;;;;;;;10401727;28;20045;-55
2022/07/14 18:52:59;;;;;;;6.55;1.60;;;;;;;;;;10407151;28;20835;-55
2022/07/14 18:58:00;;;;;;;9.35;1.70;;;;;;;;;;10407012;28;20508;-56
2022/07/14 19:03:00;;;;;;;3.75;1.40;;;;;;;;;;10406718;28;20024;-56
2022/07/14 19:08:01;;;;;;;4.30;1.43;;;;;;;;;;10411618;28;20036;-57
2022/07/14 19:13:01;;;;;;;8.83;1.93;;;;;;;;;;10389947;28;20598;-57
2022/07/14 19:18:02;;;;;;;5.97;1.25;;;;;;;;;;10402671;28;20535;-53
2022/07/14 19:23:03;;;;;;;2.33;1.15;;;;;;;;;;10383905;28;20040;-54
2022/07/14 19:28:07;;;;;;;7.47;1.23;;;;;;;;;;10409089;28;20052;-54
2022/07/14 19:33:07;;;;;;;4.15;1.50;;;;;;;;;;10398307;28;20026;-54
2022/07/14 19:38:07;;;;;;;3.77;1.20;;;;;;;;;;10395729;28;20680;-53
2022/07/14 19:43:08;;;;;;;2.60;1.20;;;;;;;;;;10380082;28;20505;-52
2022/07/14 19:48:10;;;;;;;4.00;1.13;;;;;;;;;;10394495;28;20499;-54
2022/07/14 19:53:11;;;;;;;4.30;1.30;;;;;;;;;;10386831;28;20032;-52
2022/07/14 19:58:12;;;;;;;4.80;1.30;;;;;;;;;;10407500;28;20049;-55
2022/07/14 20:03:12;;;;;;;4.15;1.20;;;;;;;;;;10397719;28;20044;-56
2022/07/14 20:08:13;;;;;;;3.95;1.00;;;;;;;;;;10399949;28;20041;-53
2022/07/14 20:13:14;;;;;;;3.08;1.35;;;;;;;;;;10407209;28;20041;-55
2022/07/14 20:18:15;;;;;;;3.22;1.55;;;;;;;;;;10403017;28;20103;-53
2022/07/14 20:23:15;;;;;;;2.90;1.38;;;;;;;;;;10394169;28;20029;-54
2022/07/14 20:33:35;;;;;;;6.47;1.48;;;;;;;;;;10387143;28;20491;-55
2022/07/14 20:38:37;;;;;;;4.55;1.55;;;;;;;;;;10401103;28;20045;-55
2022/07/14 20:43:38;;;;;;;11.05;2.28;;;;;;;;;;10400861;28;20034;-53
2022/07/14 20:48:38;;;;;;;3.40;1.20;;;;;;;;;;10397686;28;20544;-54
2022/07/14 20:53:38;;;;;;;6.60;2.03;;;;;;;;;;10396459;28;20534;-53
2022/07/14 20:58:39;;;;;;;3.53;1.30;;;;;;;;;;10402288;28;20107;-54
2022/07/14 21:03:40;;;;;;;2.10;1.67;;;;;;;;;;10390172;28;20104;-53
2022/07/14 21:08:41;;;;;;;5.63;1.10;;;;;;;;;;10389454;28;20022;-56
2022/07/14 21:13:41;;;;;;;4.13;1.30;;;;;;;;;;10381935;28;20029;-57
2022/07/14 21:18:42;;;;;;;14.30;1.63;;;;;;;;;;10399445;28;20021;-64
2022/07/14 21:23:42;;;;;;;8.68;1.30;;;;;;;;;;10405517;28;20901;-63
2022/07/14 21:28:42;;;;;;;2.92;1.38;;;;;;;;;;10389396;28;20059;-64
2022/07/14 21:33:43;;;;;;;3.43;1.23;;;;;;;;;;10402267;28;20034;-57
2022/07/14 21:38:43;;;;;;;5.90;1.70;;;;;;;;;;10403517;28;20842;-67
2022/07/14 21:43:44;;;;;;;4.53;1.67;;;;;;;;;;10404007;28;20025;-66
2022/07/14 21:48:44;;;;;;;5.78;1.60;;;;;;;;;;10396196;28;20026;-65
2022/07/14 21:53:45;;;;;;;6.57;1.50;;;;;;;;;;10397753;28;20385;-63
2022/07/14 21:58:47;;;;;;;4.33;1.33;;;;;;;;;;10391766;28;20477;-65
2022/07/14 22:03:49;;;;;;;3.80;1.20;;;;;;;;;;10402081;28;20466;-66
2022/07/14 22:08:49;;;;;;;4.38;1.30;;;;;;;;;;10409074;28;20064;-67
2022/07/14 22:13:50;;;;;;;4.93;1.40;;;;;;;;;;10409666;28;20084;-68
2022/07/14 22:18:50;;;;;;;2.03;1.40;;;;;;;;;;10411078;28;21002;-67
2022/07/14 22:23:50;;;;;;;2.97;1.52;;;;;;;;;;10385962;28;20564;-54
2022/07/14 22:28:51;;;;;;;3.83;1.50;;;;;;;;;;10405206;28;20045;-59
2022/07/14 22:33:51;;;;;;;10.60;2.10;;;;;;;;;;10399804;28;21006;-51
2022/07/14 22:38:52;;;;;;;8.67;1.90;;;;;;;;;;10391587;28;20454;-64
2022/07/14 22:43:52;;;;;;;2.53;1.83;;;;;;;;;;10391461;28;20540;-48
2022/07/14 22:48:54;;;;;;;7.07;2.50;;;;;;;;;;10409361;28;20034;-55
2022/07/14 22:53:54;;;;;;;5.20;2.08;;;;;;;;;;10406682;28;20468;-66
2022/07/14 22:58:55;;;;;;;7.32;2.50;;;;;;;;;;10408426;28;20033;-64
2022/07/14 23:03:55;;;;;;;4.55;2.05;;;;;;;;;;10405024;28;20486;-65
2022/07/14 23:08:55;;;;;;;4.20;2.20;;;;;;;;;;10401308;28;20483;-65
2022/07/14 23:13:56;;;;;;;7.23;3.00;;;;;;;;;;10407141;28;20475;-66
2022/07/14 23:18:56;;;;;;;10.77;2.43;;;;;;;;;;10395441;28;20481;-61
2022/07/14 23:23:57;;;;;;;5.93;2.63;;;;;;;;;;10395221;28;20022;-64
2022/07/14 23:28:57;;;;;;;4.77;2.23;;;;;;;;;;10388764;28;20467;-63
2022/07/14 23:33:58;;;;;;;5.53;2.50;;;;;;;;;;10399713;28;21029;-67
2022/07/14 23:38:58;;;;;;;6.80;2.35;;;;;;;;;;10398127;28;20392;-65
2022/07/14 23:43:59;;;;;;;3.78;2.40;;;;;;;;;;10389362;28;20397;-67
2022/07/14 23:49:00;;;;;;;5.63;2.37;;;;;;;;;;10408868;28;20021;-67
2022/07/14 23:54:00;;;;;;;6.15;2.47;;;;;;;;;;10396710;28;21026;-65
2022/07/14 23:59:01;;;;;;;6.13;3.13;;;;;;;;;;10395884;28;20033;-65
